sensor_id;sensor_type;location;lat;lon;timestamp;pressure;altitude;pressure_sealevel;temperature;humidity
57801;BME280;43627;42.728;23.256;2023-02-14T00:00:47;96394.91;;;0.63;100.00
57801;BME280;43627;42.728;23.256;2023-02-14T00:03:13;96406.84;;;0.66;100.00
57801;BME280;43627;42.728;23.256;2023-02-14T00:05:40;96385.31;;;0.62;100.00
57801;BME280;43627;42.728;23.256;2023-02-14T00:08:07;96396.41;;;0.61;100.00
57801;BME280;43627;42.728;23.256;2023-02-14T00:10:34;96400.28;;;0.63;100.00
57801;BME280;43627;42.728;23.256;2023-02-14T00:13:00;96388.31;;;0.57;100.00
57801;BME280;43627;42.728;23.256;2023-02-14T00:15:27;96394.47;;;0.57;100.00
57801;BME280;43627;42.728;23.256;2023-02-14T00:17:56;96400.19;;;0.56;100.00
57801;BME280;43627;42.728;23.256;2023-02-14T00:20:25;96396.59;;;0.75;100.00
57801;BME280;43627;42.728;23.256;2023-02-14T00:22:52;96396.72;;;0.82;100.00
57801;BME280;43627;42.728;23.256;2023-02-14T00:25:19;96384.16;;;0.90;100.00
57801;BME280;43627;42.728;23.256;2023-02-14T00:27:45;96393.38;;;0.92;100.00
57801;BME280;43627;42.728;23.256;2023-02-14T00:30:12;96385.41;;;0.96;100.00
57801;BME280;43627;42.728;23.256;2023-02-14T00:32:40;96389.50;;;1.20;100.00
57801;BME280;43627;42.728;23.256;2023-02-14T00:35:08;96373.25;;;1.09;100.00
57801;BME280;43627;42.728;23.256;2023-02-14T00:37:35;96382.56;;;1.15;100.00
57801;BME280;43627;42.728;23.256;2023-02-14T00:40:02;96391.88;;;1.25;100.00
57801;BME280;43627;42.728;23.256;2023-02-14T00:42:30;96394.19;;;1.26;100.00
57801;BME280;43627;42.728;23.256;2023-02-14T00:44:57;96390.03;;;1.32;100.00
57801;BME280;43627;42.728;23.256;2023-02-14T00:47:24;96381.91;;;1.25;100.00
57801;BME280;43627;42.728;23.256;2023-02-14T00:49:50;96395.84;;;1.34;100.00
57801;BME280;43627;42.728;23.256;2023-02-14T00:52:17;96384.25;;;1.30;100.00
57801;BME280;43627;42.728;23.256;2023-02-14T00:54:44;96383.13;;;1.31;100.00
57801;BME280;43627;42.728;23.256;2023-02-14T00:57:10;96383.16;;;1.35;100.00
57801;BME280;43627;42.728;23.256;2023-02-14T00:59:37;96378.84;;;1.27;100.00
57801;BME280;43627;42.728;23.256;2023-02-14T01:02:04;96376.09;;;1.23;100.00
57801;BME280;43627;42.728;23.256;2023-02-14T01:04:30;96378.84;;;1.27;100.00
57801;BME280;43627;42.728;23.256;2023-02-14T01:06:57;96368.66;;;1.09;100.00
57801;BME280;43627;42.728;23.256;2023-02-14T01:09:24;96367.94;;;1.12;100.00
57801;BME280;43627;42.728;23.256;2023-02-14T01:11:50;96349.34;;;0.97;100.00
57801;BME280;43627;42.728;23.256;2023-02-14T01:14:17;96367.91;;;1.09;100.00
57801;BME280;43627;42.728;23.256;2023-02-14T01:16:44;96360.22;;;1.07;100.00
57801;BME280;43627;42.728;23.256;2023-02-14T01:19:10;96367.13;;;1.08;100.00
57801;BME280;43627;42.728;23.256;2023-02-14T01:21:37;96346.28;;;0.98;100.00
57801;BME280;43627;42.728;23.256;2023-02-14T01:24:06;96354.34;;;0.98;100.00
57801;BME280;43627;42.728;23.256;2023-02-14T01:26:33;96344.88;;;1.08;100.00
57801;BME280;43627;42.728;23.256;2023-02-14T01:29:02;96345.59;;;1.05;100.00
57801;BME280;43627;42.728;23.256;2023-02-14T01:31:31;96362.63;;;1.16;100.00
57801;BME280;43627;42.728;23.256;2023-02-14T01:33:58;96353.81;;;1.19;100.00
57801;BME280;43627;42.728;23.256;2023-02-14T01:36:31;96326.38;;;1.03;100.00
57801;BME280;43627;42.728;23.256;2023-02-14T01:39:00;96341.34;;;1.04;100.00
57801;BME280;43627;42.728;23.256;2023-02-14T01:41:30;96331.84;;;1.10;100.00
57801;BME280;43627;42.728;23.256;2023-02-14T01:46:27;96313.78;;;1.07;100.00
57801;BME280;43627;42.728;23.256;2023-02-14T01:49:00;96322.78;;;1.25;100.00
57801;BME280;43627;42.728;23.256;2023-02-14T01:51:29;96327.03;;;1.26;100.00
57801;BME280;43627;42.728;23.256;2023-02-14T01:53:57;96323.97;;;1.28;100.00
57801;BME280;43627;42.728;23.256;2023-02-14T01:56:34;96308.50;;;1.18;100.00
57801;BME280;43627;42.728;23.256;2023-02-14T01:59:03;96323.66;;;1.33;100.00
57801;BME280;43627;42.728;23.256;2023-02-14T02:01:31;96318.59;;;1.28;100.00
57801;BME280;43627;42.728;23.256;2023-02-14T02:04:06;96318.22;;;1.29;100.00
57801;BME280;43627;42.728;23.256;2023-02-14T02:06:44;96316.72;;;1.32;100.00
57801;BME280;43627;42.728;23.256;2023-02-14T02:09:23;96335.41;;;1.21;100.00
57801;BME280;43627;42.728;23.256;2023-02-14T02:11:51;96313.91;;;1.21;100.00
57801;BME280;43627;42.728;23.256;2023-02-14T02:14:21;96312.44;;;1.24;100.00
57801;BME280;43627;42.728;23.256;2023-02-14T02:31:36;96304.38;;;1.24;100.00
57801;BME280;43627;42.728;23.256;2023-02-14T02:37:20;96278.88;;;1.10;100.00
57801;BME280;43627;42.728;23.256;2023-02-14T02:42:51;96280.53;;;1.22;100.00
57801;BME280;43627;42.728;23.256;2023-02-14T02:45:31;96258.44;;;1.02;100.00
57801;BME280;43627;42.728;23.256;2023-02-14T02:48:38;96281.16;;;1.08;100.00
57801;BME280;43627;42.728;23.256;2023-02-14T02:51:09;96295.41;;;1.12;100.00
57801;BME280;43627;42.728;23.256;2023-02-14T02:54:03;96290.28;;;1.00;100.00
57801;BME280;43627;42.728;23.256;2023-02-14T02:56:51;96293.38;;;1.02;100.00
57801;BME280;43627;42.728;23.256;2023-02-14T02:59:28;96296.41;;;0.97;100.00
57801;BME280;43627;42.728;23.256;2023-02-14T03:02:36;96300.28;;;1.03;100.00
57801;BME280;43627;42.728;23.256;2023-02-14T03:05:21;96303.22;;;0.91;100.00
57801;BME280;43627;42.728;23.256;2023-02-14T03:07:48;96290.53;;;0.88;100.00
57801;BME280;43627;42.728;23.256;2023-02-14T03:10:19;96299.78;;;0.94;100.00
57801;BME280;43627;42.728;23.256;2023-02-14T03:18:15;96284.06;;;0.93;100.00
57801;BME280;43627;42.728;23.256;2023-02-14T03:21:59;96285.56;;;0.90;100.00
57801;BME280;43627;42.728;23.256;2023-02-14T03:25:22;96275.88;;;0.82;100.00
57801;BME280;43627;42.728;23.256;2023-02-14T03:27:35;96260.47;;;0.75;100.00
57801;BME280;43627;42.728;23.256;2023-02-14T03:32:53;96253.00;;;0.58;100.00
57801;BME280;43627;42.728;23.256;2023-02-14T03:35:30;96264.56;;;0.66;100.00
57801;BME280;43627;42.728;23.256;2023-02-14T03:38:07;96269.13;;;0.62;100.00
57801;BME280;43627;42.728;23.256;2023-02-14T03:41:03;96274.97;;;0.67;100.00
57801;BME280;43627;42.728;23.256;2023-02-14T03:43:34;96281.16;;;0.75;100.00
57801;BME280;43627;42.728;23.256;2023-02-14T03:46:10;96258.41;;;0.62;100.00
57801;BME280;43627;42.728;23.256;2023-02-14T03:48:40;96270.03;;;0.73;100.00
57801;BME280;43627;42.728;23.256;2023-02-14T03:51:09;96239.13;;;0.56;100.00
57801;BME280;43627;42.728;23.256;2023-02-14T03:53:40;96260.75;;;0.67;100.00
57801;BME280;43627;42.728;23.256;2023-02-14T03:56:17;96250.38;;;0.65;100.00
57801;BME280;43627;42.728;23.256;2023-02-14T03:58:50;96223.38;;;0.51;100.00
57801;BME280;43627;42.728;23.256;2023-02-14T04:01:28;96252.72;;;0.67;100.00
57801;BME280;43627;42.728;23.256;2023-02-14T04:03:57;96254.25;;;0.68;100.00
57801;BME280;43627;42.728;23.256;2023-02-14T04:06:25;96237.72;;;0.66;100.00
57801;BME280;43627;42.728;23.256;2023-02-14T04:08:52;96246.50;;;0.63;100.00
57801;BME280;43627;42.728;23.256;2023-02-14T04:11:19;96243.06;;;0.62;100.00
57801;BME280;43627;42.728;23.256;2023-02-14T04:13:46;96225.22;;;0.47;100.00
57801;BME280;43627;42.728;23.256;2023-02-14T04:16:13;96241.19;;;0.66;100.00
57801;BME280;43627;42.728;23.256;2023-02-14T04:18:39;96238.81;;;0.57;100.00
57801;BME280;43627;42.728;23.256;2023-02-14T04:21:25;96233.06;;;0.59;100.00
57801;BME280;43627;42.728;23.256;2023-02-14T04:23:51;96233.50;;;0.65;100.00
57801;BME280;43627;42.728;23.256;2023-02-14T04:26:18;96230.00;;;0.61;100.00
57801;BME280;43627;42.728;23.256;2023-02-14T04:28:45;96225.66;;;0.49;100.00
57801;BME280;43627;42.728;23.256;2023-02-14T04:31:11;96241.53;;;0.65;100.00
57801;BME280;43627;42.728;23.256;2023-02-14T04:33:38;96240.41;;;0.66;100.00
57801;BME280;43627;42.728;23.256;2023-02-14T04:36:05;96230.88;;;0.68;100.00
57801;BME280;43627;42.728;23.256;2023-02-14T04:38:32;96230.91;;;0.72;100.00
57801;BME280;43627;42.728;23.256;2023-02-14T04:40:59;96219.75;;;0.70;100.00
57801;BME280;43627;42.728;23.256;2023-02-14T04:43:26;96218.63;;;0.71;100.00
57801;BME280;43627;42.728;23.256;2023-02-14T04:45:53;96208.97;;;0.66;100.00
57801;BME280;43627;42.728;23.256;2023-02-14T04:48:20;96200.81;;;0.55;100.00
57801;BME280;43627;42.728;23.256;2023-02-14T04:50:52;96174.56;;;0.38;100.00
57801;BME280;43627;42.728;23.256;2023-02-14T04:53:20;96190.72;;;0.45;100.00
57801;BME280;43627;42.728;23.256;2023-02-14T04:55:49;96212.75;;;0.62;100.00
57801;BME280;43627;42.728;23.256;2023-02-14T04:58:17;96198.13;;;0.55;100.00
57801;BME280;43627;42.728;23.256;2023-02-14T05:00:43;96192.69;;;0.48;100.00
57801;BME280;43627;42.728;23.256;2023-02-14T05:03:10;96197.22;;;0.44;100.00
57801;BME280;43627;42.728;23.256;2023-02-14T05:05:37;96205.09;;;0.60;100.00
57801;BME280;43627;42.728;23.256;2023-02-14T05:08:03;96211.66;;;0.66;100.00
57801;BME280;43627;42.728;23.256;2023-02-14T05:10:30;96198.19;;;0.63;100.00
57801;BME280;43627;42.728;23.256;2023-02-14T05:12:57;96196.69;;;0.65;100.00
57801;BME280;43627;42.728;23.256;2023-02-14T05:15:23;96223.72;;;0.83;100.00
57801;BME280;43627;42.728;23.256;2023-02-14T05:17:50;96218.41;;;0.87;100.00
57801;BME280;43627;42.728;23.256;2023-02-14T05:20:17;96212.13;;;0.75;100.00
57801;BME280;43627;42.728;23.256;2023-02-14T05:22:43;96201.88;;;0.84;100.00
57801;BME280;43627;42.728;23.256;2023-02-14T05:25:10;96213.75;;;0.83;100.00
57801;BME280;43627;42.728;23.256;2023-02-14T05:27:36;96203.75;;;0.77;100.00
57801;BME280;43627;42.728;23.256;2023-02-14T05:30:04;96201.22;;;0.57;100.00
57801;BME280;43627;42.728;23.256;2023-02-14T05:32:31;96169.91;;;0.35;100.00
57801;BME280;43627;42.728;23.256;2023-02-14T05:34:57;96209.19;;;0.50;100.00
57801;BME280;43627;42.728;23.256;2023-02-14T05:37:26;96209.50;;;0.45;100.00
57801;BME280;43627;42.728;23.256;2023-02-14T05:39:53;96212.97;;;0.46;100.00
57801;BME280;43627;42.728;23.256;2023-02-14T05:42:19;96215.34;;;0.54;100.00
57801;BME280;43627;42.728;23.256;2023-02-14T05:44:46;96199.72;;;0.60;100.00
57801;BME280;43627;42.728;23.256;2023-02-14T05:47:14;96207.09;;;0.70;100.00
57801;BME280;43627;42.728;23.256;2023-02-14T05:49:40;96206.06;;;0.78;100.00
57801;BME280;43627;42.728;23.256;2023-02-14T05:52:07;96197.88;;;0.68;100.00
57801;BME280;43627;42.728;23.256;2023-02-14T05:54:34;96199.38;;;0.65;100.00
57801;BME280;43627;42.728;23.256;2023-02-14T05:57:00;96200.31;;;0.80;100.00
57801;BME280;43627;42.728;23.256;2023-02-14T05:59:27;96186.25;;;0.94;100.00
57801;BME280;43627;42.728;23.256;2023-02-14T06:01:54;96178.13;;;0.87;100.00
57801;BME280;43627;42.728;23.256;2023-02-14T06:04:20;96199.22;;;1.25;100.00
57801;BME280;43627;42.728;23.256;2023-02-14T06:06:47;96207.50;;;1.57;100.00
57801;BME280;43627;42.728;23.256;2023-02-14T06:09:14;96200.69;;;1.70;98.95
57801;BME280;43627;42.728;23.256;2023-02-14T06:11:40;96218.53;;;1.93;98.98
57801;BME280;43627;42.728;23.256;2023-02-14T06:14:07;96213.91;;;1.93;96.17
57801;BME280;43627;42.728;23.256;2023-02-14T06:16:34;96220.00;;;1.83;98.33
57801;BME280;43627;42.728;23.256;2023-02-14T06:19:00;96217.25;;;1.73;98.97
57801;BME280;43627;42.728;23.256;2023-02-14T06:21:27;96205.66;;;1.65;100.00
57801;BME280;43627;42.728;23.256;2023-02-14T06:23:54;96219.44;;;1.60;100.00
57801;BME280;43627;42.728;23.256;2023-02-14T06:26:20;96196.00;;;1.57;100.00
57801;BME280;43627;42.728;23.256;2023-02-14T06:28:52;96221.53;;;1.81;100.00
57801;BME280;43627;42.728;23.256;2023-02-14T06:31:18;96228.81;;;1.80;100.00
57801;BME280;43627;42.728;23.256;2023-02-14T06:33:45;96227.75;;;1.95;100.00
57801;BME280;43627;42.728;23.256;2023-02-14T06:36:12;96198.09;;;1.85;100.00
57801;BME280;43627;42.728;23.256;2023-02-14T06:38:38;96207.06;;;2.03;100.00
57801;BME280;43627;42.728;23.256;2023-02-14T06:41:07;96221.28;;;2.04;99.29
57801;BME280;43627;42.728;23.256;2023-02-14T06:43:34;96218.19;;;2.05;100.00
57801;BME280;43627;42.728;23.256;2023-02-14T06:46:02;96219.00;;;2.09;100.00
57801;BME280;43627;42.728;23.256;2023-02-14T06:48:29;96222.09;;;2.15;100.00
57801;BME280;43627;42.728;23.256;2023-02-14T06:50:55;96211.75;;;2.20;99.92
57801;BME280;43627;42.728;23.256;2023-02-14T06:53:23;96212.19;;;2.33;100.00
57801;BME280;43627;42.728;23.256;2023-02-14T06:55:49;96213.34;;;2.36;99.29
57801;BME280;43627;42.728;23.256;2023-02-14T06:58:16;96207.63;;;2.41;99.62
57801;BME280;43627;42.728;23.256;2023-02-14T07:00:43;96206.81;;;2.37;100.00
57801;BME280;43627;42.728;23.256;2023-02-14T07:03:09;96208.38;;;2.38;100.00
57801;BME280;43627;42.728;23.256;2023-02-14T07:05:36;96187.94;;;2.22;100.00
57801;BME280;43627;42.728;23.256;2023-02-14T07:08:03;96196.78;;;2.26;100.00
57801;BME280;43627;42.728;23.256;2023-02-14T07:10:33;96190.63;;;2.26;100.00
57801;BME280;43627;42.728;23.256;2023-02-14T07:13:00;96176.81;;;2.31;100.00
57801;BME280;43627;42.728;23.256;2023-02-14T07:15:27;96187.22;;;2.29;100.00
57801;BME280;43627;42.728;23.256;2023-02-14T07:17:54;96173.31;;;2.23;100.00
57801;BME280;43627;42.728;23.256;2023-02-14T07:20:21;96176.81;;;2.27;100.00
57801;BME280;43627;42.728;23.256;2023-02-14T07:22:47;96185.19;;;2.15;100.00
57801;BME280;43627;42.728;23.256;2023-02-14T07:25:14;96165.22;;;2.13;100.00
57801;BME280;43627;42.728;23.256;2023-02-14T07:27:42;96193.34;;;2.29;100.00
57801;BME280;43627;42.728;23.256;2023-02-14T07:30:09;96203.72;;;2.27;100.00
57801;BME280;43627;42.728;23.256;2023-02-14T07:32:37;96191.41;;;2.26;100.00
57801;BME280;43627;42.728;23.256;2023-02-14T07:35:06;96207.25;;;2.42;100.00
57801;BME280;43627;42.728;23.256;2023-02-14T07:37:34;96206.03;;;2.29;100.00
57801;BME280;43627;42.728;23.256;2023-02-14T07:40:01;96196.88;;;2.41;100.00
57801;BME280;43627;42.728;23.256;2023-02-14T07:42:27;96204.56;;;2.39;100.00
57801;BME280;43627;42.728;23.256;2023-02-14T07:44:54;96200.28;;;2.34;100.00
57801;BME280;43627;42.728;23.256;2023-02-14T07:47:21;96203.31;;;2.25;100.00
57801;BME280;43627;42.728;23.256;2023-02-14T07:49:47;96198.69;;;2.19;100.00
57801;BME280;43627;42.728;23.256;2023-02-14T07:52:14;96188.66;;;2.09;100.00
57801;BME280;43627;42.728;23.256;2023-02-14T07:54:40;96171.34;;;2.13;100.00
57801;BME280;43627;42.728;23.256;2023-02-14T07:57:07;96223.38;;;2.39;100.00
57801;BME280;43627;42.728;23.256;2023-02-14T07:59:34;96217.59;;;2.29;100.00
57801;BME280;43627;42.728;23.256;2023-02-14T08:02:01;96220.56;;;2.17;100.00
57801;BME280;43627;42.728;23.256;2023-02-14T08:04:27;96212.22;;;2.37;100.00
57801;BME280;43627;42.728;23.256;2023-02-14T08:06:54;96220.66;;;2.28;100.00
57801;BME280;43627;42.728;23.256;2023-02-14T08:09:21;96237.22;;;2.37;100.00
57801;BME280;43627;42.728;23.256;2023-02-14T08:11:52;96243.38;;;2.38;100.00
57801;BME280;43627;42.728;23.256;2023-02-14T08:14:37;96243.38;;;2.41;100.00
57801;BME280;43627;42.728;23.256;2023-02-14T08:17:04;96241.03;;;2.36;100.00
57801;BME280;43627;42.728;23.256;2023-02-14T08:19:33;96229.13;;;2.30;100.00
57801;BME280;43627;42.728;23.256;2023-02-14T08:21:59;96224.47;;;2.23;100.00
57801;BME280;43627;42.728;23.256;2023-02-14T08:24:26;96233.72;;;2.29;100.00
57801;BME280;43627;42.728;23.256;2023-02-14T08:26:53;96245.31;;;2.37;100.00
57801;BME280;43627;42.728;23.256;2023-02-14T08:29:20;96236.03;;;2.31;100.00
57801;BME280;43627;42.728;23.256;2023-02-14T08:31:47;96212.53;;;2.24;100.00
57801;BME280;43627;42.728;23.256;2023-02-14T08:34:15;96232.19;;;2.36;100.00
57801;BME280;43627;42.728;23.256;2023-02-14T08:36:42;96209.03;;;2.10;100.00
57801;BME280;43627;42.728;23.256;2023-02-14T08:39:09;96231.38;;;2.24;100.00
57801;BME280;43627;42.728;23.256;2023-02-14T08:41:36;96217.16;;;2.24;100.00
57801;BME280;43627;42.728;23.256;2023-02-14T08:44:02;96213.22;;;2.07;100.00
57801;BME280;43627;42.728;23.256;2023-02-14T08:46:29;96208.09;;;1.88;100.00
57801;BME280;43627;42.728;23.256;2023-02-14T08:48:56;96218.59;;;2.07;100.00
57801;BME280;43627;42.728;23.256;2023-02-14T08:51:23;96240.22;;;2.21;100.00
57801;BME280;43627;42.728;23.256;2023-02-14T08:53:51;96231.81;;;2.34;100.00
57801;BME280;43627;42.728;23.256;2023-02-14T08:56:18;96234.94;;;2.39;100.00
57801;BME280;43627;42.728;23.256;2023-02-14T08:58:50;96218.75;;;2.32;100.00
57801;BME280;43627;42.728;23.256;2023-02-14T09:01:17;96199.41;;;2.12;100.00
57801;BME280;43627;42.728;23.256;2023-02-14T09:03:44;96232.91;;;2.25;100.00
57801;BME280;43627;42.728;23.256;2023-02-14T09:06:13;96227.19;;;2.31;100.00
57801;BME280;43627;42.728;23.256;2023-02-14T09:08:43;96202.94;;;2.23;100.00
57801;BME280;43627;42.728;23.256;2023-02-14T09:11:13;96233.25;;;2.17;100.00
57801;BME280;43627;42.728;23.256;2023-02-14T09:13:43;96231.75;;;2.23;100.00
57801;BME280;43627;42.728;23.256;2023-02-14T09:16:11;96221.81;;;2.31;100.00
57801;BME280;43627;42.728;23.256;2023-02-14T09:18:39;96200.63;;;2.25;100.00
57801;BME280;43627;42.728;23.256;2023-02-14T09:21:08;96223.00;;;2.40;100.00
57801;BME280;43627;42.728;23.256;2023-02-14T09:23:36;96206.91;;;2.47;100.00
57801;BME280;43627;42.728;23.256;2023-02-14T09:26:06;96197.97;;;2.29;100.00
57801;BME280;43627;42.728;23.256;2023-02-14T09:28:33;96214.94;;;2.40;100.00
57801;BME280;43627;42.728;23.256;2023-02-14T09:31:09;96224.88;;;2.29;100.00
57801;BME280;43627;42.728;23.256;2023-02-14T09:33:36;96223.69;;;2.19;100.00
57801;BME280;43627;42.728;23.256;2023-02-14T09:36:22;96227.56;;;2.29;100.00
57801;BME280;43627;42.728;23.256;2023-02-14T09:38:48;96212.88;;;2.12;100.00
57801;BME280;43627;42.728;23.256;2023-02-14T09:43:55;96221.41;;;2.28;100.00
57801;BME280;43627;42.728;23.256;2023-02-14T09:46:25;96217.25;;;2.38;100.00
57801;BME280;43627;42.728;23.256;2023-02-14T09:48:53;96226.50;;;2.51;100.00
57801;BME280;43627;42.728;23.256;2023-02-14T09:51:23;96202.25;;;2.37;100.00
57801;BME280;43627;42.728;23.256;2023-02-14T09:53:59;96201.06;;;2.31;100.00
57801;BME280;43627;42.728;23.256;2023-02-14T09:56:48;96202.22;;;2.34;100.00
57801;BME280;43627;42.728;23.256;2023-02-14T09:59:27;96203.31;;;2.22;100.00
57801;BME280;43627;42.728;23.256;2023-02-14T10:02:08;96210.19;;;2.12;100.00
57801;BME280;43627;42.728;23.256;2023-02-14T10:08:16;96196.63;;;1.98;100.00
57801;BME280;43627;42.728;23.256;2023-02-14T10:10:52;96215.50;;;2.02;100.00
57801;BME280;43627;42.728;23.256;2023-02-14T10:13:30;96201.72;;;2.17;100.00
57801;BME280;43627;42.728;23.256;2023-02-14T10:16:04;96197.88;;;2.11;100.00
57801;BME280;43627;42.728;23.256;2023-02-14T10:18:41;96174.00;;;1.99;100.00
57801;BME280;43627;42.728;23.256;2023-02-14T10:21:17;96171.69;;;2.01;100.00
57801;BME280;43627;42.728;23.256;2023-02-14T10:23:59;96172.09;;;2.07;100.00
57801;BME280;43627;42.728;23.256;2023-02-14T10:26:35;96195.25;;;2.22;100.00
57801;BME280;43627;42.728;23.256;2023-02-14T10:29:06;96193.75;;;2.35;100.00
57801;BME280;43627;42.728;23.256;2023-02-14T10:31:41;96194.81;;;2.16;100.00
57801;BME280;43627;42.728;23.256;2023-02-14T10:42:58;96114.47;;;1.38;100.00
57801;BME280;43627;42.728;23.256;2023-02-14T10:45:38;96190.16;;;2.06;100.00
57801;BME280;43627;42.728;23.256;2023-02-14T10:48:25;96172.06;;;1.99;100.00
57801;BME280;43627;42.728;23.256;2023-02-14T10:51:02;96191.25;;;1.98;100.00
57801;BME280;43627;42.728;23.256;2023-02-14T10:53:45;96188.56;;;1.94;100.00
57801;BME280;43627;42.728;23.256;2023-02-14T10:56:20;96185.53;;;2.07;100.00
57801;BME280;43627;42.728;23.256;2023-02-14T10:58:50;96147.09;;;1.99;100.00
57801;BME280;43627;42.728;23.256;2023-02-14T11:01:18;96176.75;;;2.13;100.00
57801;BME280;43627;42.728;23.256;2023-02-14T11:03:55;96174.06;;;2.17;100.00
57801;BME280;43627;42.728;23.256;2023-02-14T11:06:24;96150.19;;;2.01;100.00
57801;BME280;43627;42.728;23.256;2023-02-14T11:08:51;96161.41;;;2.21;100.00
57801;BME280;43627;42.728;23.256;2023-02-14T11:13:50;96159.44;;;2.18;100.00
57801;BME280;43627;42.728;23.256;2023-02-14T11:16:37;96156.78;;;2.21;100.00
57801;BME280;43627;42.728;23.256;2023-02-14T11:19:18;96162.22;;;2.28;100.00
57801;BME280;43627;42.728;23.256;2023-02-14T11:21:47;96161.06;;;2.33;100.00
57801;BME280;43627;42.728;23.256;2023-02-14T11:27:16;96142.25;;;2.40;100.00
57801;BME280;43627;42.728;23.256;2023-02-14T11:29:48;96130.72;;;2.43;100.00
57801;BME280;43627;42.728;23.256;2023-02-14T11:32:21;96135.00;;;2.62;100.00
57801;BME280;43627;42.728;23.256;2023-02-14T11:35:02;96138.44;;;2.52;100.00
57801;BME280;43627;42.728;23.256;2023-02-14T11:37:42;96110.34;;;2.46;100.00
57801;BME280;43627;42.728;23.256;2023-02-14T11:42:59;96141.56;;;2.68;97.18
57801;BME280;43627;42.728;23.256;2023-02-14T11:45:40;96140.78;;;2.68;96.09
57801;BME280;43627;42.728;23.256;2023-02-14T11:48:23;96132.72;;;2.71;95.05
57801;BME280;43627;42.728;23.256;2023-02-14T11:51:12;96131.94;;;2.71;94.58
57801;BME280;43627;42.728;23.256;2023-02-14T11:53:47;96126.56;;;2.67;95.33
57801;BME280;43627;42.728;23.256;2023-02-14T11:56:17;96093.06;;;2.54;95.24
57801;BME280;43627;42.728;23.256;2023-02-14T12:01:34;95996.88;;;2.12;95.18
57801;BME280;43627;42.728;23.256;2023-02-14T12:04:05;96080.41;;;2.69;93.18
57801;BME280;43627;42.728;23.256;2023-02-14T12:06:39;96078.81;;;2.53;93.15
57801;BME280;43627;42.728;23.256;2023-02-14T12:14:28;96096.19;;;2.95;93.61
57801;BME280;43627;42.728;23.256;2023-02-14T12:17:13;96082.72;;;2.88;92.59
57801;BME280;43627;42.728;23.256;2023-02-14T12:20:03;96024.22;;;2.56;92.44
57801;BME280;43627;42.728;23.256;2023-02-14T12:22:56;96112.38;;;2.95;92.93
57801;BME280;43627;42.728;23.256;2023-02-14T12:25:32;96104.28;;;2.95;92.26
57801;BME280;43627;42.728;23.256;2023-02-14T12:28:08;96081.94;;;2.66;93.75
57801;BME280;43627;42.728;23.256;2023-02-14T12:30:37;96081.94;;;2.80;93.59
57801;BME280;43627;42.728;23.256;2023-02-14T12:33:24;96083.09;;;2.86;94.68
57801;BME280;43627;42.728;23.256;2023-02-14T12:38:55;96076.56;;;3.02;93.51
57801;BME280;43627;42.728;23.256;2023-02-14T12:44:13;95962.66;;;2.09;99.87
57801;BME280;43627;42.728;23.256;2023-02-14T12:50:17;96088.50;;;3.26;93.48
57801;BME280;43627;42.728;23.256;2023-02-14T12:55:44;96008.06;;;2.42;94.65
57801;BME280;43627;42.728;23.256;2023-02-14T13:07:39;96004.59;;;2.52;97.84
57801;BME280;43627;42.728;23.256;2023-02-14T13:10:54;96084.66;;;3.23;96.55
57801;BME280;43627;42.728;23.256;2023-02-14T13:13:32;96088.50;;;2.97;97.93
57801;BME280;43627;42.728;23.256;2023-02-14T13:16:45;95992.28;;;2.55;99.09
57801;BME280;43627;42.728;23.256;2023-02-14T13:19:36;96080.41;;;3.04;98.65
57801;BME280;43627;42.728;23.256;2023-02-14T13:22:10;96078.47;;;3.19;100.00
57801;BME280;43627;42.728;23.256;2023-02-14T13:24:45;96066.19;;;3.04;97.77
57801;BME280;43627;42.728;23.256;2023-02-14T13:27:18;96037.31;;;2.83;98.72
57801;BME280;43627;42.728;23.256;2023-02-14T13:29:51;96064.22;;;2.94;99.81
57801;BME280;43627;42.728;23.256;2023-02-14T13:32:20;96077.34;;;3.06;99.59
57801;BME280;43627;42.728;23.256;2023-02-14T13:34:49;96068.09;;;2.93;100.00
57801;BME280;43627;42.728;23.256;2023-02-14T13:37:18;96044.63;;;2.86;100.00
57801;BME280;43627;42.728;23.256;2023-02-14T13:39:50;96062.72;;;3.14;100.00
57801;BME280;43627;42.728;23.256;2023-02-14T13:48:12;96029.63;;;2.85;99.98
57801;BME280;43627;42.728;23.256;2023-02-14T13:53:40;96061.91;;;3.03;100.00
57801;BME280;43627;42.728;23.256;2023-02-14T13:59:04;96067.72;;;3.08;100.00
57801;BME280;43627;42.728;23.256;2023-02-14T14:01:38;96065.78;;;2.98;100.00
57801;BME280;43627;42.728;23.256;2023-02-14T14:17:34;96076.94;;;3.18;98.33
57801;BME280;43627;42.728;23.256;2023-02-14T14:20:48;96069.63;;;3.08;98.30
57801;BME280;43627;42.728;23.256;2023-02-14T14:22:52;96077.72;;;2.97;99.86
57801;BME280;43627;42.728;23.256;2023-02-14T14:28:06;96006.91;;;2.50;100.00
57801;BME280;43627;42.728;23.256;2023-02-14T14:30:35;96054.63;;;2.82;100.00
57801;BME280;43627;42.728;23.256;2023-02-14T14:35:53;96062.31;;;2.87;100.00
57801;BME280;43627;42.728;23.256;2023-02-14T14:38:21;96022.28;;;2.64;100.00
57801;BME280;43627;42.728;23.256;2023-02-14T14:40:48;95973.06;;;2.56;100.00
57801;BME280;43627;42.728;23.256;2023-02-14T14:43:21;96053.84;;;3.10;100.00
57801;BME280;43627;42.728;23.256;2023-02-14T14:45:49;96015.00;;;2.75;99.46
57801;BME280;43627;42.728;23.256;2023-02-14T14:51:07;96053.84;;;2.99;98.72
57801;BME280;43627;42.728;23.256;2023-02-14T14:53:43;96042.31;;;2.95;99.19
57801;BME280;43627;42.728;23.256;2023-02-14T14:56:17;96006.16;;;2.68;98.98
57801;BME280;43627;42.728;23.256;2023-02-14T14:58:45;96045.38;;;2.94;98.52
57801;BME280;43627;42.728;23.256;2023-02-14T15:01:30;96060.03;;;2.96;99.75
57801;BME280;43627;42.728;23.256;2023-02-14T15:04:13;96034.59;;;2.83;100.00
57801;BME280;43627;42.728;23.256;2023-02-14T15:06:41;96033.84;;;2.75;100.00
57801;BME280;43627;42.728;23.256;2023-02-14T15:09:34;95973.44;;;2.19;100.00
57801;BME280;43627;42.728;23.256;2023-02-14T15:12:01;95953.03;;;2.15;100.00